Time;durP1;ratioP1;P1;durP2;ratioP2;P2;SDS_P1;SDS_P2;PMS_P1;PMS_P2;Temp;Humidity;BMP_temperature;BMP_pressure;BME280_temperature;BME280_humidity;BME280_pressure;Samples;Min_cycle;Max_cycle;Signal;HPM_P1;HPM_P2
2023/10/07 00:02:15;;;;;;;4.93;1.95;;;11.40;99.90;;;;;;5027983;28;20041;-75
2023/10/07 00:04:42;;;;;;;4.80;2.38;;;11.30;99.90;;;;;;5027921;28;20049;-76
2023/10/07 00:07:14;;;;;;;3.47;1.60;;;11.30;99.90;;;;;;5030211;28;20033;-76
2023/10/07 00:09:46;;;;;;;7.63;2.47;;;11.30;99.90;;;;;;5031690;28;20444;-76
2023/10/07 00:12:14;;;;;;;7.70;3.15;;;11.30;99.90;;;;;;5031813;28;20033;-75
2023/10/07 00:14:41;;;;;;;8.18;3.92;;;11.20;99.90;;;;;;5031449;28;20034;-76
2023/10/07 00:17:17;;;;;;;7.95;3.13;;;11.20;99.90;;;;;;5031233;28;20395;-76
2023/10/07 00:19:47;;;;;;;11.88;3.50;;;11.20;99.90;;;;;;5031397;28;20394;-76
2023/10/07 00:22:14;;;;;;;7.75;2.47;;;11.20;99.90;;;;;;5030020;28;20080;-75
2023/10/07 00:24:45;;;;;;;5.63;2.28;;;11.20;99.90;;;;;;5031205;28;20047;-76
2023/10/07 00:27:26;;;;;;;5.80;2.85;;;11.10;99.90;;;;;;5031052;28;20029;-75
2023/10/07 00:29:54;;;;;;;7.22;3.03;;;11.10;99.90;;;;;;5031041;28;20033;-77
2023/10/07 00:32:32;;;;;;;6.32;2.78;;;11.10;99.90;;;;;;5031148;28;20038;-75
2023/10/07 00:35:01;;;;;;;5.57;2.72;;;11.10;99.90;;;;;;5031405;28;20018;-77
2023/10/07 00:37:29;;;;;;;7.15;1.80;;;11.10;99.90;;;;;;5031260;28;20116;-75
2023/10/07 00:40:00;;;;;;;8.05;2.05;;;11.10;99.90;;;;;;5030066;28;20447;-76
2023/10/07 00:42:26;;;;;;;8.13;1.75;;;11.10;99.90;;;;;;5031274;28;20452;-76
2023/10/07 00:44:53;;;;;;;4.28;1.88;;;11.10;99.90;;;;;;5030958;28;20124;-76
2023/10/07 00:47:20;;;;;;;7.05;1.95;;;11.00;99.90;;;;;;5030900;28;20064;-75
2023/10/07 00:52:32;;;;;;;5.68;1.63;;;11.00;99.90;;;;;;5030761;28;20116;-76
2023/10/07 01:02:46;;;;;;;3.72;1.50;;;11.00;99.90;;;;;;5030522;28;20080;-76
2023/10/07 01:05:13;;;;;;;3.80;1.38;;;11.00;99.90;;;;;;5030307;28;20017;-76
2023/10/07 01:07:46;;;;;;;4.78;1.90;;;11.00;99.90;;;;;;5030708;28;20049;-76
2023/10/07 01:10:13;;;;;;;7.78;1.52;;;11.10;99.90;;;;;;5030413;28;20034;-75
2023/10/07 01:12:42;;;;;;;5.45;1.65;;;11.10;99.90;;;;;;5030281;28;20074;-76
2023/10/07 01:15:26;;;;;;;6.40;1.48;;;11.00;99.90;;;;;;5030461;28;20017;-76
2023/10/07 01:17:57;;;;;;;5.70;1.92;;;11.00;99.90;;;;;;5029545;28;20053;-75
2023/10/07 01:20:37;;;;;;;6.95;1.77;;;11.00;99.90;;;;;;5030332;28;20064;-75
2023/10/07 01:23:07;;;;;;;4.25;1.95;;;11.00;99.90;;;;;;5028832;28;20037;-76
2023/10/07 01:25:37;;;;;;;8.70;1.70;;;10.90;99.90;;;;;;5028817;28;20034;-74
2023/10/07 01:28:04;;;;;;;6.68;2.28;;;11.00;99.90;;;;;;5030060;28;20637;-76
2023/10/07 01:30:34;;;;;;;3.47;1.58;;;11.00;99.90;;;;;;5028898;28;20497;-75
2023/10/07 01:33:24;;;;;;;5.32;1.80;;;11.00;99.90;;;;;;5030065;28;20071;-75
2023/10/07 01:36:16;;;;;;;6.22;2.35;;;11.00;99.90;;;;;;5029913;28;20049;-75
2023/10/07 01:38:48;;;;;;;4.35;1.58;;;10.90;99.90;;;;;;5029891;28;20034;-75
2023/10/07 01:41:21;;;;;;;5.53;1.55;;;10.80;99.90;;;;;;5030376;28;20040;-76
2023/10/07 01:46:29;;;;;;;7.25;1.83;;;10.90;99.90;;;;;;5031142;28;20426;-78
2023/10/07 01:49:01;;;;;;;14.50;2.78;;;10.90;99.90;;;;;;5030039;28;20769;-74
2023/10/07 01:51:28;;;;;;;6.80;2.22;;;10.90;99.90;;;;;;5029640;28;20584;-75
2023/10/07 01:54:04;;;;;;;4.53;1.58;;;10.90;99.90;;;;;;5029662;28;20079;-74
2023/10/07 01:56:33;;;;;;;10.82;2.22;;;10.90;99.90;;;;;;5029572;28;20025;-74
2023/10/07 01:59:04;;;;;;;7.10;2.33;;;10.90;99.90;;;;;;5029362;28;20029;-75
2023/10/07 02:01:30;;;;;;;6.60;2.22;;;10.90;99.90;;;;;;5029330;28;20068;-75
2023/10/07 02:03:59;;;;;;;;;;;10.90;99.90;;;;;;5029720;28;20449;-75
2023/10/07 02:06:26;;;;;;;7.55;2.25;;;10.80;99.90;;;;;;5029304;28;19909;-75
2023/10/07 02:08:55;;;;;;;6.00;2.08;;;10.80;99.90;;;;;;5029313;28;20068;-75
2023/10/07 02:11:28;;;;;;;6.43;2.03;;;10.90;99.90;;;;;;5029173;28;20037;-74
2023/10/07 02:13:55;;;;;;;4.88;1.65;;;10.80;99.90;;;;;;5029179;28;20608;-74
2023/10/07 02:16:21;;;;;;;5.15;1.63;;;10.80;99.90;;;;;;5029081;28;20136;-75
2023/10/07 02:18:47;;;;;;;;;;;10.80;99.90;;;;;;5029325;28;20566;-74
2023/10/07 02:21:16;;;;;;;4.40;2.05;;;10.80;99.90;;;;;;5029072;28;19940;-75
2023/10/07 02:23:45;;;;;;;5.22;2.05;;;10.70;99.90;;;;;;5029308;28;20489;-75
2023/10/07 02:28:50;;;;;;;4.80;1.50;;;10.80;99.90;;;;;;5029146;28;20036;-75
2023/10/07 02:31:20;;;;;;;7.22;2.15;;;10.80;99.90;;;;;;5029025;28;20402;-75
2023/10/07 02:33:57;;;;;;;7.20;1.80;;;10.80;99.90;;;;;;5029054;28;20576;-75
2023/10/07 02:36:37;;;;;;;3.92;1.48;;;10.80;99.90;;;;;;5029941;28;20017;-74
2023/10/07 02:39:24;;;;;;;6.32;2.10;;;10.90;99.90;;;;;;5027950;28;20029;-75
2023/10/07 02:41:50;;;;;;;8.70;1.85;;;10.90;99.90;;;;;;5028430;28;20080;-75
2023/10/07 02:44:17;;;;;;;3.78;2.13;;;10.80;99.90;;;;;;5029197;28;20075;-75
2023/10/07 02:46:52;;;;;;;4.35;1.80;;;10.70;99.90;;;;;;5027631;28;20025;-76
2023/10/07 02:49:20;;;;;;;4.65;1.63;;;10.70;99.90;;;;;;5028661;28;20048;-76
2023/10/07 02:51:47;;;;;;;4.47;1.60;;;10.60;99.90;;;;;;5028843;28;20124;-75
2023/10/07 02:54:21;;;;;;;4.55;2.10;;;10.60;99.90;;;;;;5027399;28;20439;-75
2023/10/07 02:56:56;;;;;;;8.50;2.20;;;10.60;99.90;;;;;;5027610;28;20036;-75
2023/10/07 02:59:29;;;;;;;6.80;2.40;;;10.70;99.90;;;;;;5030203;28;20124;-75
2023/10/07 03:04:46;;;;;;;7.15;2.35;;;10.70;99.90;;;;;;5029044;28;20034;-75
2023/10/07 03:07:16;;;;;;;8.73;3.50;;;10.60;99.90;;;;;;5028849;28;20493;-75
2023/10/07 03:09:43;;;;;;;7.40;3.17;;;10.60;99.90;;;;;;5028896;28;20025;-76
2023/10/07 03:12:16;;;;;;;12.88;3.40;;;10.60;99.90;;;;;;5027774;28;20072;-75
2023/10/07 03:14:43;;;;;;;8.70;2.80;;;10.60;99.90;;;;;;5029332;28;20431;-75
2023/10/07 03:17:18;;;;;;;6.50;2.25;;;10.50;99.90;;;;;;5027415;28;20049;-74
2023/10/07 03:19:58;;;;;;;6.88;2.80;;;10.50;99.90;;;;;;5028951;28;20103;-74
2023/10/07 03:22:28;;;;;;;4.80;2.33;;;10.50;99.90;;;;;;5029284;28;20091;-74
2023/10/07 03:25:00;;;;;;;5.20;2.38;;;10.40;99.90;;;;;;5027532;28;20029;-75
2023/10/07 03:27:28;;;;;;;7.18;2.85;;;10.40;99.90;;;;;;5029034;28;20083;-75
2023/10/07 03:30:12;;;;;;;6.43;2.83;;;10.40;99.90;;;;;;5028765;28;20037;-75
2023/10/07 03:32:54;;;;;;;5.97;3.03;;;10.50;99.90;;;;;;5029335;28;20391;-75
2023/10/07 03:38:10;;;;;;;7.57;3.08;;;10.40;99.90;;;;;;5029539;28;20060;-74
2023/10/07 03:40:38;;;;;;;7.55;2.83;;;10.50;99.90;;;;;;5029073;28;20040;-75
2023/10/07 03:43:05;;;;;;;7.45;2.15;;;10.40;99.90;;;;;;5033381;28;20025;-75
2023/10/07 03:45:31;;;;;;;5.60;2.40;;;10.40;99.90;;;;;;5034065;28;20026;-76
2023/10/07 03:47:57;;;;;;;;;;;10.40;99.90;;;;;;5038394;28;20029;-75
2023/10/07 03:50:35;;;;;;;6.03;2.00;;;10.40;99.90;;;;;;5033421;28;19909;-75
2023/10/07 03:53:02;;;;;;;7.47;2.42;;;10.30;99.90;;;;;;5032894;28;20033;-76
2023/10/07 03:55:29;;;;;;;6.03;2.08;;;10.20;99.90;;;;;;5032583;28;20545;-76
2023/10/07 03:57:55;;;;;;;4.30;2.22;;;10.20;99.90;;;;;;5032704;28;20021;-76
2023/10/07 04:00:27;;;;;;;8.43;2.80;;;10.20;99.90;;;;;;5032370;28;20041;-75
2023/10/07 04:02:52;;;;;;;6.38;2.42;;;10.20;99.90;;;;;;5032283;28;20405;-75
2023/10/07 04:05:31;;;;;;;;;;;10.20;99.90;;;;;;5033011;28;20037;-75
2023/10/07 04:07:57;;;;;;;7.53;3.13;;;10.10;99.90;;;;;;5031189;28;20389;-75
2023/10/07 04:10:31;;;;;;;10.48;4.38;;;10.20;99.90;;;;;;5032711;28;20600;-75
2023/10/07 04:12:57;;;;;;;11.38;5.88;;;10.10;99.90;;;;;;5033522;28;20033;-74
2023/10/07 04:15:28;;;;;;;;;;;10.20;99.90;;;;;;5034308;28;20067;-75
2023/10/07 04:17:54;;;;;;;12.95;4.88;;;10.10;99.90;;;;;;5033180;28;20000;-75
2023/10/07 04:20:24;;;;;;;;;;;10.10;99.90;;;;;;5031857;28;20037;-75
2023/10/07 04:23:00;;;;;;;11.65;4.20;;;10.10;99.90;;;;;;5031656;28;20473;-75
2023/10/07 04:25:27;;;;;;;6.28;3.03;;;10.20;99.90;;;;;;5030209;28;20025;-76
2023/10/07 04:27:54;;;;;;;9.20;4.45;;;10.20;99.90;;;;;;5031643;28;20036;-74
2023/10/07 04:30:39;;;;;;;4.30;2.42;;;10.20;99.90;;;;;;5031380;28;20014;-74
2023/10/07 04:33:10;;;;;;;15.65;3.55;;;10.20;99.90;;;;;;5031377;28;20029;-74
2023/10/07 04:35:37;;;;;;;6.78;3.22;;;10.20;99.90;;;;;;5029375;28;20088;-75
2023/10/07 04:38:18;;;;;;;8.13;3.45;;;10.10;99.90;;;;;;5031824;28;20450;-75
2023/10/07 04:43:47;;;;;;;7.75;3.33;;;10.10;99.90;;;;;;5031613;28;20044;-75
2023/10/07 04:46:28;;;;;;;7.38;3.17;;;10.10;99.90;;;;;;5031591;28;20021;-75
2023/10/07 04:49:12;;;;;;;9.38;2.90;;;10.10;99.90;;;;;;5035154;28;20029;-75
2023/10/07 04:54:07;;;;;;;9.02;3.60;;;10.10;99.90;;;;;;5030357;28;20029;-75
2023/10/07 04:56:33;;;;;;;;;;;10.10;99.90;;;;;;5031831;28;20402;-75
2023/10/07 04:59:05;;;;;;;9.35;3.45;;;10.20;99.90;;;;;;5031494;28;19913;-74
2023/10/07 05:01:33;;;;;;;7.75;3.05;;;10.20;99.90;;;;;;5046900;28;20116;-75
2023/10/07 05:04:08;;;;;;;8.40;3.25;;;10.20;99.90;;;;;;5049835;28;20144;-75
2023/10/07 05:06:35;;;;;;;9.43;3.85;;;10.20;99.90;;;;;;5051323;28;20401;-74
2023/10/07 05:09:17;;;;;;;17.05;3.92;;;10.20;99.90;;;;;;5051332;28;20501;-74
2023/10/07 05:11:45;;;;;;;7.93;3.42;;;10.20;99.90;;;;;;5051169;28;20028;-74
2023/10/07 05:14:22;;;;;;;5.50;2.65;;;10.30;99.90;;;;;;5051682;28;20021;-75
2023/10/07 05:16:48;;;;;;;11.60;3.28;;;10.20;99.90;;;;;;5051054;28;20307;-75
2023/10/07 05:19:22;;;;;;;6.97;2.70;;;10.30;99.90;;;;;;5051363;28;20422;-76
2023/10/07 05:24:56;;;;;;;9.38;3.03;;;10.40;99.90;;;;;;5059532;28;20568;-76
2023/10/07 05:27:23;;;;;;;6.32;2.72;;;10.40;99.90;;;;;;5045056;28;20059;-76
2023/10/07 05:29:49;;;;;;;8.82;2.63;;;10.50;99.90;;;;;;5038115;28;20056;-75
2023/10/07 05:32:17;;;;;;;12.27;3.20;;;10.60;99.90;;;;;;5040773;28;20112;-75
2023/10/07 05:34:45;;;;;;;7.95;3.30;;;10.80;99.90;;;;;;5038683;28;20056;-75
2023/10/07 05:37:11;;;;;;;9.02;3.15;;;10.80;99.90;;;;;;5050070;28;20036;-76
2023/10/07 05:42:22;;;;;;;10.85;3.20;;;11.00;99.90;;;;;;5049932;28;20334;-76
2023/10/07 05:44:48;;;;;;;;;;;11.10;99.90;;;;;;5050201;28;20021;-76
2023/10/07 05:47:14;;;;;;;8.60;2.97;;;11.20;99.90;;;;;;5050082;28;19909;-75
2023/10/07 05:49:41;;;;;;;;;;;11.20;99.90;;;;;;5049319;28;20504;-78
2023/10/07 05:52:06;;;;;;;10.65;3.65;;;11.30;99.90;;;;;;5049795;28;19909;-76
2023/10/07 05:54:33;;;;;;;;;;;11.40;99.90;;;;;;5050127;28;20041;-76
2023/10/07 05:57:03;;;;;;;6.00;3.13;;;11.60;99.90;;;;;;5049694;28;20037;-75
2023/10/07 05:59:33;;;;;;;8.63;3.00;;;11.70;99.90;;;;;;5048371;28;20446;-76
2023/10/07 06:02:05;;;;;;;4.72;2.38;;;11.90;99.90;;;;;;5048336;28;20041;-77
2023/10/07 06:04:31;;;;;;;7.88;2.92;;;12.10;99.90;;;;;;5049266;28;20103;-76
2023/10/07 06:06:57;;;;;;;;;;;12.30;99.90;;;;;;5048424;28;20112;-76
2023/10/07 06:09:23;;;;;;;9.68;2.90;;;12.60;99.90;;;;;;5049418;28;20362;-76
2023/10/07 06:11:48;;;;;;;6.25;2.28;;;13.00;99.90;;;;;;5049297;28;20104;-75
2023/10/07 06:14:18;;;;;;;8.38;2.92;;;13.40;99.90;;;;;;5049395;28;20535;-76
2023/10/07 06:16:44;;;;;;;6.78;1.98;;;13.80;99.90;;;;;;5049132;28;20051;-76
2023/10/07 06:19:13;;;;;;;;;;;14.20;99.90;;;;;;5049845;28;20028;-76
2023/10/07 06:21:50;;;;;;;6.20;3.00;;;14.50;99.90;;;;;;5047806;28;19967;-76
2023/10/07 06:24:26;;;;;;;10.27;3.25;;;14.80;99.90;;;;;;5049123;28;20075;-75
2023/10/07 06:26:55;;;;;;;6.75;2.53;;;15.10;99.90;;;;;;5049279;28;20032;-76
2023/10/07 06:29:21;;;;;;;8.18;3.08;;;15.50;99.90;;;;;;5049209;28;20841;-75
2023/10/07 06:34:41;;;;;;;9.55;3.20;;;16.30;99.90;;;;;;5057677;28;20029;-75
2023/10/07 06:37:07;;;;;;;10.45;3.20;;;16.50;99.90;;;;;;5048941;28;20037;-75
2023/10/07 06:39:32;;;;;;;10.15;3.35;;;16.50;99.90;;;;;;5048973;28;20025;-75
2023/10/07 06:41:58;;;;;;;7.38;2.58;;;16.30;99.90;;;;;;5048821;28;20041;-76
2023/10/07 06:44:24;;;;;;;7.32;2.72;;;16.20;99.90;;;;;;5047600;28;20112;-76
2023/10/07 06:46:55;;;;;;;9.80;2.65;;;16.00;99.90;;;;;;5047520;28;20033;-76
2023/10/07 06:49:22;;;;;;;8.32;3.40;;;15.80;99.90;;;;;;5047461;28;20462;-76
2023/10/07 06:51:56;;;;;;;8.52;3.40;;;15.70;99.90;;;;;;5047352;28;20039;-76
2023/10/07 06:54:32;;;;;;;11.15;3.50;;;15.60;99.90;;;;;;5048879;28;20425;-76
2023/10/07 06:56:58;;;;;;;15.32;2.92;;;15.50;99.90;;;;;;5048813;28;20092;-75
2023/10/07 06:59:27;;;;;;;161.73;130.68;;;15.40;99.90;;;;;;5048601;28;20048;-75
2023/10/07 07:01:54;;;;;;;79.35;56.00;;;15.30;99.90;;;;;;5048535;28;20037;-75
2023/10/07 07:04:22;;;;;;;30.05;23.52;;;15.20;99.90;;;;;;5048597;28;20452;-75
2023/10/07 07:07:09;;;;;;;17.17;10.93;;;15.20;99.90;;;;;;5047238;28;20406;-76
2023/10/07 07:12:21;;;;;;;10.75;4.82;;;15.10;99.90;;;;;;5048731;28;20036;-76
2023/10/07 07:14:51;;;;;;;7.10;3.53;;;15.10;99.90;;;;;;5048596;28;20078;-77
2023/10/07 07:17:30;;;;;;;11.68;3.80;;;15.10;99.90;;;;;;5051179;28;20066;-75
2023/10/07 07:22:46;;;;;;;10.85;3.42;;;15.10;99.90;;;;;;5052548;28;20310;-75
2023/10/07 07:25:18;;;;;;;;;;;15.20;99.90;;;;;;5051669;28;20192;-74
2023/10/07 07:27:48;;;;;;;13.50;4.13;;;15.20;99.90;;;;;;5052477;28;19916;-76
2023/10/07 07:30:30;;;;;;;10.60;3.55;;;15.40;99.90;;;;;;5052431;28;20039;-75
2023/10/07 07:33:06;;;;;;;13.57;3.83;;;15.50;99.90;;;;;;5052437;28;20068;-75
2023/10/07 07:35:51;;;;;;;11.38;4.05;;;15.70;99.90;;;;;;5052519;28;20033;-75
2023/10/07 07:40:44;;;;;;;11.48;3.95;;;16.00;99.90;;;;;;5051960;28;20044;-75
2023/10/07 07:43:13;;;;;;;8.75;3.38;;;16.10;99.90;;;;;;5050915;28;20490;-77
2023/10/07 07:45:40;;;;;;;10.80;4.07;;;16.30;99.90;;;;;;5050897;28;20128;-76
2023/10/07 07:48:06;;;;;;;10.35;3.47;;;16.50;99.90;;;;;;5050733;28;20041;-76
2023/10/07 07:50:35;;;;;;;10.07;3.33;;;16.70;99.90;;;;;;5051943;28;20028;-75
2023/10/07 07:53:07;;;;;;;7.95;3.00;;;17.00;99.90;;;;;;5052132;28;20025;-75
2023/10/07 07:55:37;;;;;;;9.95;3.40;;;17.20;99.90;;;;;;5052014;28;20033;-76
2023/10/07 07:58:04;;;;;;;6.75;3.05;;;17.50;99.90;;;;;;5052019;28;20033;-75
2023/10/07 08:00:31;;;;;;;16.65;4.47;;;17.80;99.90;;;;;;5051724;28;20049;-75
2023/10/07 08:03:02;;;;;;;10.68;4.25;;;18.00;99.90;;;;;;5051937;28;20055;-76
2023/10/07 08:05:28;;;;;;;12.20;3.38;;;18.20;99.90;;;;;;5051825;28;20036;-75
2023/10/07 08:07:55;;;;;;;10.18;4.10;;;18.30;99.90;;;;;;5051646;28;20025;-76
2023/10/07 08:10:22;;;;;;;11.35;4.60;;;18.40;99.90;;;;;;5050492;28;20025;-75
2023/10/07 08:12:50;;;;;;;9.85;3.28;;;18.40;99.90;;;;;;5050179;28;20025;-75
2023/10/07 08:15:23;;;;;;;10.57;4.47;;;18.50;99.90;;;;;;5051599;28;20440;-76
2023/10/07 08:17:56;;;;;;;8.00;3.92;;;18.70;99.90;;;;;;5051366;28;20107;-76
2023/10/07 08:20:37;;;;;;;8.35;4.25;;;19.00;98.80;;;;;;5051406;28;20032;-76
2023/10/07 08:23:07;;;;;;;10.45;4.28;;;19.10;97.90;;;;;;5051596;28;20037;-75
2023/10/07 08:25:46;;;;;;;12.20;4.80;;;19.50;97.00;;;;;;5051417;28;20036;-75
2023/10/07 08:28:23;;;;;;;11.27;4.15;;;20.00;95.90;;;;;;5051337;28;20065;-76
2023/10/07 08:30:49;;;;;;;12.50;4.32;;;20.30;94.00;;;;;;5051260;28;20021;-75
2023/10/07 08:33:17;;;;;;;11.95;3.60;;;20.70;92.80;;;;;;5051316;28;20067;-76
2023/10/07 08:35:47;;;;;;;11.70;4.28;;;20.90;91.80;;;;;;5051199;28;20074;-75
2023/10/07 08:38:20;;;;;;;9.30;4.40;;;21.10;91.10;;;;;;5051207;28;20021;-76
2023/10/07 08:41:04;;;;;;;9.32;3.75;;;21.50;88.50;;;;;;5050949;28;20426;-76
2023/10/07 08:43:43;;;;;;;8.90;4.10;;;21.70;84.90;;;;;;5051142;28;20103;-76
2023/10/07 08:46:12;;;;;;;9.32;4.13;;;21.60;82.70;;;;;;5051141;28;20468;-76
2023/10/07 08:48:49;;;;;;;11.02;3.95;;;21.40;81.20;;;;;;5050869;28;20028;-77
2023/10/07 08:51:21;;;;;;;13.68;4.03;;;21.50;81.30;;;;;;5051193;28;20051;-74
2023/10/07 08:53:47;;;;;;;9.73;3.90;;;21.50;81.30;;;;;;5050846;28;20039;-76
2023/10/07 08:56:17;;;;;;;17.08;4.75;;;21.60;80.40;;;;;;5050866;28;20025;-75
2023/10/07 08:58:44;;;;;;;12.88;4.15;;;21.40;80.30;;;;;;5049605;28;20068;-75
2023/10/07 09:01:19;;;;;;;9.90;4.03;;;21.20;80.60;;;;;;5050769;28;20056;-75
2023/10/07 09:03:50;;;;;;;10.90;4.15;;;21.20;78.80;;;;;;5049453;28;20039;-76
2023/10/07 09:06:16;;;;;;;11.93;4.10;;;21.00;79.40;;;;;;5050766;28;20108;-76
2023/10/07 09:08:45;;;;;;;14.75;4.85;;;21.30;79.40;;;;;;5050660;28;20021;-76
2023/10/07 09:11:19;;;;;;;9.23;4.03;;;21.90;78.10;;;;;;5050510;28;20040;-75
2023/10/07 09:13:47;;;;;;;10.55;4.43;;;22.70;75.00;;;;;;5050604;28;20497;-77
2023/10/07 09:16:13;;;;;;;9.60;3.75;;;23.10;72.60;;;;;;5050340;28;20057;-75
2023/10/07 09:18:42;;;;;;;8.35;4.35;;;23.50;70.40;;;;;;5050316;28;20033;-75
2023/10/07 09:21:19;;;;;;;12.98;4.90;;;23.80;68.60;;;;;;5050226;28;20036;-76
2023/10/07 09:23:48;;;;;;;13.05;4.53;;;24.30;67.80;;;;;;5050420;28;20095;-75
2023/10/07 09:26:33;;;;;;;9.95;4.35;;;24.70;65.40;;;;;;5050361;28;20021;-76
2023/10/07 09:29:11;;;;;;;13.40;5.68;;;25.20;63.20;;;;;;5050367;28;20017;-76
2023/10/07 09:31:39;;;;;;;15.63;4.50;;;25.40;62.10;;;;;;5050273;28;20685;-76
2023/10/07 09:34:10;;;;;;;7.95;3.95;;;25.10;61.80;;;;;;5048856;28;20412;-76
2023/10/07 09:36:40;;;;;;;7.85;3.67;;;25.10;59.70;;;;;;5050406;28;20024;-76
2023/10/07 09:41:39;;;;;;;14.38;4.70;;;25.70;57.00;;;;;;5050071;28;20102;-76
2023/10/07 09:44:20;;;;;;;10.80;4.35;;;25.90;55.20;;;;;;5050000;28;20048;-75
2023/10/07 09:46:46;;;;;;;7.95;4.20;;;26.10;55.00;;;;;;5049811;28;20021;-76
2023/10/07 09:49:14;;;;;;;9.30;4.53;;;26.50;54.60;;;;;;5049842;28;20036;-75
2023/10/07 09:51:47;;;;;;;11.95;4.43;;;26.30;54.40;;;;;;5049834;28;20028;-76
2023/10/07 09:54:47;;;;;;;12.05;4.55;;;25.70;54.80;;;;;;5049915;28;20025;-76
2023/10/07 09:57:36;;;;;;;16.42;5.38;;;24.90;56.00;;;;;;5049844;28;20021;-76
2023/10/07 10:03:20;;;;;;;11.25;4.15;;;23.50;58.90;;;;;;5049620;28;20394;-75
2023/10/07 10:05:58;;;;;;;10.20;3.80;;;23.00;60.80;;;;;;5049720;28;20028;-75
2023/10/07 10:08:58;;;;;;;9.68;4.18;;;22.60;61.30;;;;;;5049616;28;20025;-75
2023/10/07 10:11:31;;;;;;;7.15;3.78;;;22.40;61.00;;;;;;5049286;28;20027;-76
2023/10/07 10:17:00;;;;;;;7.50;4.22;;;21.90;63.20;;;;;;5058414;28;20135;-75
2023/10/07 10:19:26;;;;;;;13.45;3.92;;;21.80;64.30;;;;;;5048093;28;20414;-74
2023/10/07 10:21:52;;;;;;;9.55;3.58;;;21.70;65.00;;;;;;5049597;28;20025;-74
2023/10/07 10:24:25;;;;;;;12.27;4.55;;;21.60;64.20;;;;;;5049750;28;20031;-74
2023/10/07 10:27:01;;;;;;;8.88;3.30;;;21.50;65.30;;;;;;5047922;28;20079;-73
2023/10/07 10:29:33;;;;;;;10.52;4.13;;;21.50;65.80;;;;;;5049292;28;20076;-74
2023/10/07 10:32:03;;;;;;;6.97;3.70;;;21.50;66.30;;;;;;5049053;28;20495;-74
2023/10/07 10:34:29;;;;;;;12.15;4.18;;;21.50;65.10;;;;;;5049164;28;20405;-74
2023/10/07 10:36:56;;;;;;;7.75;3.58;;;21.50;65.30;;;;;;5049116;28;20025;-74
2023/10/07 10:39:31;;;;;;;11.32;4.53;;;21.50;65.30;;;;;;5047619;28;20029;-73
2023/10/07 10:42:02;;;;;;;6.72;3.42;;;21.40;65.10;;;;;;5048985;28;20032;-73
2023/10/07 10:44:46;;;;;;;7.68;3.60;;;21.40;65.60;;;;;;5048937;28;20024;-73
2023/10/07 10:47:18;;;;;;;10.82;3.50;;;21.30;65.70;;;;;;5048988;28;20021;-73
2023/10/07 10:49:44;;;;;;;10.07;3.92;;;21.40;65.90;;;;;;5048931;28;20017;-74
2023/10/07 10:52:12;;;;;;;7.60;3.15;;;21.40;66.40;;;;;;5047877;28;20110;-73
2023/10/07 10:54:39;;;;;;;10.02;4.03;;;21.40;64.00;;;;;;5048734;28;20091;-73
2023/10/07 10:57:08;;;;;;;9.05;3.55;;;21.40;62.60;;;;;;5048782;28;20384;-73
2023/10/07 10:59:47;;;;;;;12.70;4.30;;;21.40;63.20;;;;;;5048883;28;20028;-73
2023/10/07 11:02:17;;;;;;;10.15;4.15;;;21.50;65.00;;;;;;5048661;28;20107;-73
2023/10/07 11:04:45;;;;;;;10.95;4.47;;;21.50;65.50;;;;;;5047959;28;20031;-73
2023/10/07 11:07:12;;;;;;;9.98;4.70;;;21.50;66.00;;;;;;5029170;28;20394;-74
2023/10/07 11:09:38;;;;;;;9.30;3.92;;;21.50;65.80;;;;;;5028778;28;20034;-74
2023/10/07 11:12:09;;;;;;;9.70;3.85;;;21.50;65.30;;;;;;5031919;28;20033;-73
2023/10/07 11:14:40;;;;;;;40.50;21.65;;;21.40;66.00;;;;;;5038163;28;20025;-74
2023/10/07 11:17:09;;;;;;;24.52;14.10;;;21.40;66.00;;;;;;5040163;28;20076;-73
2023/10/07 11:19:50;;;;;;;9.45;5.00;;;21.40;65.90;;;;;;5033573;28;20021;-74
2023/10/07 11:22:21;;;;;;;9.30;3.53;;;21.30;66.20;;;;;;5037131;28;20042;-73
2023/10/07 11:24:50;;;;;;;7.78;3.45;;;21.40;66.80;;;;;;5034227;28;20028;-73
2023/10/07 11:27:17;;;;;;;7.97;4.03;;;21.50;66.70;;;;;;5034415;28;20030;-74
2023/10/07 11:29:43;;;;;;;11.85;3.63;;;21.50;66.70;;;;;;5033225;28;20032;-73
2023/10/07 11:32:09;;;;;;;8.55;5.03;;;21.60;66.10;;;;;;5028352;28;20386;-72
2023/10/07 11:34:36;;;;;;;11.50;4.63;;;21.60;65.60;;;;;;5028487;28;20029;-72
2023/10/07 11:37:22;;;;;;;8.73;3.80;;;21.60;66.30;;;;;;5028336;28;20517;-73
2023/10/07 11:39:48;;;;;;;18.10;9.80;;;21.60;66.30;;;;;;5028448;28;20017;-75
2023/10/07 11:42:18;;;;;;;13.07;3.28;;;21.60;66.20;;;;;;5028276;28;20037;-73
2023/10/07 11:44:49;;;;;;;10.30;5.35;;;21.60;66.10;;;;;;5028674;28;20032;-74
2023/10/07 11:47:16;;;;;;;17.55;4.20;;;21.50;67.00;;;;;;5028087;28;20033;-73
2023/10/07 11:49:46;;;;;;;12.20;3.97;;;21.40;67.60;;;;;;5028526;28;20052;-73
2023/10/07 11:52:13;;;;;;;11.13;4.03;;;21.40;67.50;;;;;;5026949;28;20540;-73
2023/10/07 11:54:39;;;;;;;14.77;8.30;;;21.20;68.00;;;;;;5028066;28;20037;-73
2023/10/07 11:57:06;;;;;;;11.93;6.28;;;21.20;68.30;;;;;;5028671;28;20021;-74
2023/10/07 11:59:35;;;;;;;21.70;12.05;;;21.10;69.10;;;;;;5027087;28;20297;-75
2023/10/07 12:02:09;;;;;;;9.82;4.68;;;21.00;69.40;;;;;;5027368;28;20041;-72
2023/10/07 12:04:38;;;;;;;7.90;3.55;;;20.90;69.50;;;;;;5031914;28;20025;-73
2023/10/07 12:07:06;;;;;;;18.33;7.45;;;20.80;70.00;;;;;;5031824;28;20036;-73
2023/10/07 12:09:33;;;;;;;11.85;4.07;;;20.80;70.40;;;;;;5032861;28;20116;-73
2023/10/07 12:11:59;;;;;;;89.65;47.85;;;20.80;70.80;;;;;;5031621;28;20025;-73
2023/10/07 12:14:27;;;;;;;46.35;25.08;;;20.80;71.20;;;;;;5031627;28;20067;-74
2023/10/07 12:16:53;;;;;;;85.45;45.55;;;20.80;72.20;;;;;;5031573;28;20057;-73
2023/10/07 12:19:19;;;;;;;25.20;13.88;;;20.80;71.60;;;;;;5030132;28;20032;-74
2023/10/07 12:21:47;;;;;;;14.80;5.38;;;20.90;71.70;;;;;;5031475;28;20033;-74
2023/10/07 12:24:14;;;;;;;10.60;5.15;;;20.90;71.70;;;;;;5031635;28;20030;-72
2023/10/07 12:26:40;;;;;;;10.27;4.32;;;20.90;71.40;;;;;;5031823;28;20025;-75
2023/10/07 12:29:06;;;;;;;9.82;4.60;;;20.80;71.20;;;;;;5035553;28;20030;-73
2023/10/07 12:31:32;;;;;;;15.13;6.88;;;20.90;70.40;;;;;;5030047;28;20494;-74
2023/10/07 12:33:59;;;;;;;9.40;3.78;;;20.80;70.20;;;;;;5031272;28;20036;-74
2023/10/07 12:36:25;;;;;;;7.70;2.97;;;20.80;70.60;;;;;;5031203;28;20018;-74
2023/10/07 12:38:50;;;;;;;18.05;5.43;;;20.80;71.20;;;;;;5031309;28;20521;-74
2023/10/07 12:41:16;;;;;;;11.98;4.22;;;20.70;71.50;;;;;;5030896;28;20116;-74
2023/10/07 12:43:42;;;;;;;16.70;3.58;;;20.70;71.40;;;;;;5031799;28;20116;-76
2023/10/07 12:46:09;;;;;;;7.25;3.22;;;20.60;71.30;;;;;;5031187;28;20030;-75
2023/10/07 12:48:40;;;;;;;6.90;2.92;;;20.60;70.20;;;;;;5030379;28;20490;-73
2023/10/07 12:51:06;;;;;;;6.50;3.08;;;20.50;70.20;;;;;;5031055;28;20095;-74
2023/10/07 12:53:35;;;;;;;10.35;3.63;;;20.50;70.00;;;;;;5031079;28;20483;-74
2023/10/07 12:56:19;;;;;;;8.30;3.85;;;20.50;70.80;;;;;;5030887;28;20025;-74
2023/10/07 12:58:46;;;;;;;9.75;3.45;;;20.40;71.00;;;;;;5031002;28;20418;-73
2023/10/07 13:01:12;;;;;;;10.82;3.80;;;20.30;71.00;;;;;;5030665;28;20033;-74
2023/10/07 13:03:45;;;;;;;6.53;2.92;;;20.30;71.10;;;;;;5030654;28;20030;-73
2023/10/07 13:06:14;;;;;;;8.38;3.17;;;20.30;71.60;;;;;;5030685;28;20033;-73
2023/10/07 13:08:40;;;;;;;11.95;3.47;;;20.20;71.90;;;;;;5030752;28;20394;-74
2023/10/07 13:11:13;;;;;;;8.88;3.60;;;20.20;72.80;;;;;;5030679;28;20029;-74
2023/10/07 13:13:40;;;;;;;6.15;2.90;;;20.20;72.80;;;;;;5030812;28;20025;-73
2023/10/07 13:16:13;;;;;;;7.78;3.08;;;20.20;73.00;;;;;;5041475;28;20025;-74
2023/10/07 13:18:40;;;;;;;7.13;3.10;;;20.10;73.80;;;;;;5050440;28;20549;-74
2023/10/07 13:21:18;;;;;;;7.93;3.25;;;20.10;74.40;;;;;;5050407;28;20031;-74
2023/10/07 13:23:45;;;;;;;8.30;3.08;;;20.10;75.20;;;;;;5050751;28;20028;-74
2023/10/07 13:26:11;;;;;;;7.97;3.20;;;20.10;75.50;;;;;;5049089;28;20542;-74
2023/10/07 13:28:38;;;;;;;12.15;3.10;;;20.00;75.60;;;;;;5048907;28;20430;-74
2023/10/07 13:31:08;;;;;;;6.68;3.10;;;20.00;76.20;;;;;;5050293;28;20154;-73
2023/10/07 13:33:36;;;;;;;4.55;2.38;;;19.90;76.50;;;;;;5050334;28;20550;-73
2023/10/07 13:36:06;;;;;;;13.75;3.20;;;20.00;76.90;;;;;;5042088;28;20014;-73
2023/10/07 13:38:33;;;;;;;11.75;3.72;;;20.00;77.40;;;;;;5028899;28;20056;-74
2023/10/07 13:41:00;;;;;;;10.32;3.17;;;20.10;78.40;;;;;;5029946;28;20041;-74
2023/10/07 13:43:29;;;;;;;6.22;2.97;;;20.20;78.40;;;;;;5030034;28;20128;-73
2023/10/07 13:45:58;;;;;;;8.70;3.83;;;20.20;79.00;;;;;;5029775;28;20049;-73
2023/10/07 13:48:24;;;;;;;7.38;2.45;;;20.30;78.90;;;;;;5028712;28;20076;-73
2023/10/07 13:50:51;;;;;;;6.70;3.20;;;20.40;78.20;;;;;;5029912;28;20029;-74
2023/10/07 13:53:16;;;;;;;10.43;2.80;;;20.50;77.70;;;;;;5029871;28;20071;-73
2023/10/07 13:58:15;;;;;;;8.10;2.90;;;20.60;77.00;;;;;;5029792;28;20489;-74